Terminal Aerodrome Forecast
Issued by NWS

Home | Current Version | Previous Version | Text Only | Print | Product List | Glossary On
Versions: 1 2 3 4 5 6 7 8 9 10 11 12 13 14 15 16 17
000
FTAK31 PANC 232331
TAFAVD
TAF
PAVD 232331Z 2400/2424 24007KT P6SM SCT060 BKN100
     FM241200 VRB03KT P6SM -SHRA SCT040 OVC060
     FM241600 VRB04KT 5SM -RA BR SCT015 OVC025
      AMD LTD TO CLD VIS AND WIND=

USA.gov is the U.S. government's official web portal to all federal, state and local government web resources and services.